Time;durP1;ratioP1;P1;durP2;ratioP2;P2;SDS_P1;SDS_P2;PMS_P1;PMS_P2;Temp;Humidity;BMP_temperature;BMP_pressure;BME280_temperature;BME280_humidity;BME280_pressure;Samples;Min_cycle;Max_cycle;Signal;HPM_P1;HPM_P2
2021/06/30 00:02:10;;;;;;;12.77;5.35;;;;;;;;;;4259175;33;20264;-56
2021/06/30 00:04:35;;;;;;;10.18;4.03;;;;;;;;;;4258800;33;20248;-56
2021/06/30 00:07:01;;;;;;;10.55;4.75;;;;;;;;;;4259234;33;20295;-57
2021/06/30 00:09:27;;;;;;;9.93;4.28;;;;;;;;;;4258692;33;20697;-55
2021/06/30 00:11:52;;;;;;;9.88;4.03;;;;;;;;;;4259508;33;20213;-57
2021/06/30 00:14:18;;;;;;;11.45;4.25;;;;;;;;;;4258452;33;20285;-56
2021/06/30 00:16:45;;;;;;;14.10;4.00;;;;;;;;;;4259032;33;20287;-56
2021/06/30 00:19:12;;;;;;;11.65;4.18;;;;;;;;;;4258021;33;20337;-57
2021/06/30 00:21:38;;;;;;;7.68;4.25;;;;;;;;;;4258727;33;20264;-56
2021/06/30 00:24:05;;;;;;;12.73;4.47;;;;;;;;;;4258796;33;20588;-56
2021/06/30 00:26:30;;;;;;;10.23;5.20;;;;;;;;;;4258969;33;20232;-56
2021/06/30 00:28:56;;;;;;;8.35;4.70;;;;;;;;;;4258469;33;20198;-56
2021/06/30 00:31:22;;;;;;;9.35;4.28;;;;;;;;;;4261417;33;20709;-56
2021/06/30 00:33:49;;;;;;;6.45;4.37;;;;;;;;;;4258290;33;20224;-56
2021/06/30 00:36:14;;;;;;;6.95;3.55;;;;;;;;;;4269293;33;20795;-56
2021/06/30 00:38:40;;;;;;;8.57;4.95;;;;;;;;;;4258357;33;20221;-56
2021/06/30 00:41:06;;;;;;;16.50;5.87;;;;;;;;;;4258892;33;20280;-58
2021/06/30 00:43:33;;;;;;;13.65;4.00;;;;;;;;;;4258078;33;20240;-56
2021/06/30 00:45:59;;;;;;;21.37;4.53;;;;;;;;;;4258575;33;20217;-56
2021/06/30 00:48:25;;;;;;;10.88;5.32;;;;;;;;;;4257864;33;20633;-56
2021/06/30 00:50:50;;;;;;;8.75;4.50;;;;;;;;;;4258359;33;20715;-56
2021/06/30 00:53:16;;;;;;;9.57;5.10;;;;;;;;;;4257910;33;20271;-56
2021/06/30 00:55:41;;;;;;;8.55;4.90;;;;;;;;;;4258515;33;20310;-56
2021/06/30 00:58:07;;;;;;;12.98;5.90;;;;;;;;;;4258027;33;20285;-56
2021/06/30 01:00:33;;;;;;;9.93;4.37;;;;;;;;;;4258495;33;20300;-55
2021/06/30 01:02:59;;;;;;;6.87;4.78;;;;;;;;;;4257963;33;20283;-56
2021/06/30 01:05:24;;;;;;;12.10;4.55;;;;;;;;;;4258474;33;20299;-55
2021/06/30 01:07:50;;;;;;;7.57;5.20;;;;;;;;;;4258050;33;20213;-57
2021/06/30 01:10:16;;;;;;;12.48;5.10;;;;;;;;;;4255102;33;20268;-56
2021/06/30 01:12:41;;;;;;;11.45;4.95;;;;;;;;;;4257933;33;20236;-55
2021/06/30 01:15:09;;;;;;;7.93;4.57;;;;;;;;;;4257999;33;20339;-55
2021/06/30 01:17:35;;;;;;;12.52;5.50;;;;;;;;;;4257901;33;20259;-55
2021/06/30 01:20:02;;;;;;;7.03;5.15;;;;;;;;;;4268704;33;20768;-56
2021/06/30 01:22:27;;;;;;;12.52;5.07;;;;;;;;;;4257792;33;20784;-56
2021/06/30 01:24:54;;;;;;;14.87;4.47;;;;;;;;;;4257065;33;20291;-56
2021/06/30 01:27:28;;;;;;;9.75;5.03;;;;;;;;;;4257946;33;20224;-56
2021/06/30 01:29:54;;;;;;;12.52;5.87;;;;;;;;;;4257386;33;20200;-56
2021/06/30 01:32:19;;;;;;;10.95;5.75;;;;;;;;;;4256927;33;20232;-56
2021/06/30 01:34:46;;;;;;;11.60;4.68;;;;;;;;;;4257450;33;20727;-55
2021/06/30 01:37:12;;;;;;;12.43;5.10;;;;;;;;;;4257730;33;20599;-56
2021/06/30 01:39:38;;;;;;;6.93;4.25;;;;;;;;;;4257464;33;20213;-56
2021/06/30 01:42:03;;;;;;;12.02;4.75;;;;;;;;;;4258065;33;20224;-56
2021/06/30 01:44:29;;;;;;;10.25;4.68;;;;;;;;;;4257437;33;20217;-56
2021/06/30 01:46:55;;;;;;;10.73;5.45;;;;;;;;;;4258121;33;20217;-56
2021/06/30 01:49:21;;;;;;;17.20;7.00;;;;;;;;;;4257412;33;20243;-56
2021/06/30 01:51:46;;;;;;;18.12;7.22;;;;;;;;;;4257770;33;20302;-55
2021/06/30 01:54:15;;;;;;;15.52;5.97;;;;;;;;;;4257596;33;20255;-56
2021/06/30 01:56:41;;;;;;;15.65;6.93;;;;;;;;;;4257861;33;20235;-56
2021/06/30 01:59:13;;;;;;;11.82;6.37;;;;;;;;;;4257519;33;20721;-56
2021/06/30 02:01:40;;;;;;;10.45;5.03;;;;;;;;;;4258480;33;20196;-56
2021/06/30 02:04:06;;;;;;;12.18;4.90;;;;;;;;;;4257505;33;20220;-56
2021/06/30 02:06:40;;;;;;;7.45;4.65;;;;;;;;;;4257844;33;20351;-56
2021/06/30 02:09:08;;;;;;;12.18;5.60;;;;;;;;;;4257368;33;20571;-56
2021/06/30 02:11:34;;;;;;;9.80;4.32;;;;;;;;;;4257641;33;20205;-56
2021/06/30 02:14:00;;;;;;;10.07;4.87;;;;;;;;;;4257128;33;20329;-56
2021/06/30 02:16:25;;;;;;;15.32;5.70;;;;;;;;;;4257713;33;20322;-56
2021/06/30 02:18:52;;;;;;;15.70;6.78;;;;;;;;;;4257259;33;20694;-56
2021/06/30 02:21:17;;;;;;;12.50;6.15;;;;;;;;;;4268494;33;20542;-56
2021/06/30 02:23:43;;;;;;;11.35;5.68;;;;;;;;;;4267950;33;20342;-56
2021/06/30 02:26:08;;;;;;;9.20;5.30;;;;;;;;;;4257691;33;20272;-56
2021/06/30 02:28:34;;;;;;;18.92;6.40;;;;;;;;;;4257148;33;20312;-56
2021/06/30 02:31:00;;;;;;;10.15;5.05;;;;;;;;;;4260245;33;20694;-57
2021/06/30 02:33:26;;;;;;;9.90;5.05;;;;;;;;;;4256787;33;20229;-56
2021/06/30 02:35:52;;;;;;;9.07;4.37;;;;;;;;;;4257583;33;20574;-57
2021/06/30 02:38:18;;;;;;;14.15;5.78;;;;;;;;;;4257262;33;20225;-56
2021/06/30 02:40:44;;;;;;;12.95;5.35;;;;;;;;;;4257617;33;20280;-56
2021/06/30 02:43:10;;;;;;;13.13;5.80;;;;;;;;;;4257697;33;20255;-56
2021/06/30 02:45:35;;;;;;;17.08;5.95;;;;;;;;;;4260214;33;20346;-56
2021/06/30 02:48:01;;;;;;;9.40;5.18;;;;;;;;;;4270469;33;20338;-55
2021/06/30 02:50:28;;;;;;;18.70;5.82;;;;;;;;;;4258903;33;20307;-58
2021/06/30 02:52:54;;;;;;;12.73;6.20;;;;;;;;;;4259431;33;20308;-57
2021/06/30 02:55:20;;;;;;;16.23;6.22;;;;;;;;;;4260085;33;20275;-55
2021/06/30 02:57:47;;;;;;;13.18;5.87;;;;;;;;;;4259609;33;20576;-56
2021/06/30 03:00:16;;;;;;;16.05;5.07;;;;;;;;;;4259994;33;20227;-57
2021/06/30 03:02:43;;;;;;;10.15;5.30;;;;;;;;;;4259573;33;20217;-56
2021/06/30 03:05:09;;;;;;;12.05;5.55;;;;;;;;;;4259745;33;20606;-56
2021/06/30 03:07:35;;;;;;;12.27;5.05;;;;;;;;;;4259672;33;20235;-56
2021/06/30 03:10:00;;;;;;;9.00;4.18;;;;;;;;;;4260033;33;20690;-56
2021/06/30 03:12:26;;;;;;;9.27;4.78;;;;;;;;;;4259599;33;20252;-56
2021/06/30 03:14:51;;;;;;;15.20;5.57;;;;;;;;;;4259906;33;20408;-56
2021/06/30 03:17:17;;;;;;;9.73;4.78;;;;;;;;;;4259860;33;20518;-57
2021/06/30 03:19:42;;;;;;;12.50;5.15;;;;;;;;;;4259347;33;20264;-55
2021/06/30 03:22:08;;;;;;;19.10;5.43;;;;;;;;;;4260106;33;20565;-56
2021/06/30 03:24:33;;;;;;;14.75;5.75;;;;;;;;;;4259245;33;20283;-55
2021/06/30 03:27:00;;;;;;;20.35;5.05;;;;;;;;;;4259641;33;20228;-56
2021/06/30 03:29:25;;;;;;;10.27;5.43;;;;;;;;;;4258941;33;20280;-56
2021/06/30 03:31:51;;;;;;;11.10;5.12;;;;;;;;;;4261889;33;20205;-55
2021/06/30 03:34:16;;;;;;;7.37;4.80;;;;;;;;;;4259058;33;20216;-56
2021/06/30 03:36:42;;;;;;;9.52;5.03;;;;;;;;;;4259459;33;20276;-56
2021/06/30 03:39:07;;;;;;;15.10;6.65;;;;;;;;;;4259110;33;20208;-56
2021/06/30 03:41:33;;;;;;;16.37;5.65;;;;;;;;;;4259401;33;20283;-56
2021/06/30 03:43:58;;;;;;;19.17;4.93;;;;;;;;;;4259016;33;20225;-56
2021/06/30 03:46:24;;;;;;;14.18;5.70;;;;;;;;;;4259315;33;20833;-58
2021/06/30 03:48:49;;;;;;;12.63;5.32;;;;;;;;;;4258901;33;20213;-56
2021/06/30 03:51:15;;;;;;;10.85;5.07;;;;;;;;;;4259421;33;20358;-58
2021/06/30 03:53:40;;;;;;;9.68;5.37;;;;;;;;;;4281368;33;20346;-56
2021/06/30 03:56:06;;;;;;;14.27;7.90;;;;;;;;;;4259437;33;20287;-56
2021/06/30 03:58:32;;;;;;;12.60;7.72;;;;;;;;;;4257744;33;20240;-56
2021/06/30 04:00:58;;;;;;;15.27;8.02;;;;;;;;;;4259182;33;20283;-57
2021/06/30 04:03:24;;;;;;;18.52;10.00;;;;;;;;;;4258650;33;20307;-56
2021/06/30 04:05:49;;;;;;;21.62;11.15;;;;;;;;;;4259342;33;20305;-56
2021/06/30 04:08:15;;;;;;;25.58;11.07;;;;;;;;;;4258781;33;20216;-55
2021/06/30 04:10:41;;;;;;;22.37;10.27;;;;;;;;;;4259458;33;20790;-55
2021/06/30 04:13:08;;;;;;;24.40;10.80;;;;;;;;;;4258396;33;20236;-55
2021/06/30 04:15:34;;;;;;;25.42;10.82;;;;;;;;;;4258942;33;20205;-57
2021/06/30 04:18:04;;;;;;;37.50;11.30;;;;;;;;;;4269142;33;20543;-57
2021/06/30 04:20:29;;;;;;;24.48;12.05;;;;;;;;;;4258773;33;20271;-56
2021/06/30 04:22:55;;;;;;;23.60;9.55;;;;;;;;;;4258543;33;20737;-56
2021/06/30 04:25:20;;;;;;;25.40;11.30;;;;;;;;;;4258975;33;20822;-55
2021/06/30 04:27:46;;;;;;;19.70;9.88;;;;;;;;;;4258534;33;20657;-56
2021/06/30 04:30:13;;;;;;;29.40;11.60;;;;;;;;;;4259551;33;20296;-55
2021/06/30 04:32:39;;;;;;;21.55;10.60;;;;;;;;;;4270194;33;20418;-56
2021/06/30 04:35:07;;;;;;;14.98;7.93;;;;;;;;;;4258562;33;20340;-56
2021/06/30 04:37:33;;;;;;;19.85;8.02;;;;;;;;;;4258191;33;20236;-56
2021/06/30 04:40:00;;;;;;;16.12;7.45;;;;;;;;;;4258473;33;20332;-56
2021/06/30 04:42:25;;;;;;;16.15;7.57;;;;;;;;;;4257962;33;20264;-56
2021/06/30 04:44:51;;;;;;;12.43;7.28;;;;;;;;;;4258398;33;20296;-55
2021/06/30 04:47:16;;;;;;;14.32;7.57;;;;;;;;;;4258618;33;20284;-55
2021/06/30 04:49:42;;;;;;;17.90;7.65;;;;;;;;;;4257590;33;20301;-55
2021/06/30 04:52:07;;;;;;;10.52;6.62;;;;;;;;;;4258188;33;20763;-56
2021/06/30 04:54:33;;;;;;;15.77;7.15;;;;;;;;;;4257990;33;20209;-56
2021/06/30 04:56:58;;;;;;;22.62;7.62;;;;;;;;;;4258685;33;20247;-56
2021/06/30 04:59:24;;;;;;;13.57;7.62;;;;;;;;;;4257873;33;20205;-56
2021/06/30 05:01:50;;;;;;;13.15;7.05;;;;;;;;;;4258221;33;20232;-56
2021/06/30 05:04:16;;;;;;;10.23;6.53;;;;;;;;;;4257617;33;20686;-56
2021/06/30 05:06:42;;;;;;;23.33;6.87;;;;;;;;;;4257743;33;20665;-56
2021/06/30 05:09:07;;;;;;;16.10;6.30;;;;;;;;;;4257675;33;20217;-56
2021/06/30 05:11:33;;;;;;;12.73;6.07;;;;;;;;;;4257980;33;20777;-56
2021/06/30 05:13:58;;;;;;;12.23;5.65;;;;;;;;;;4268094;33;20325;-56
2021/06/30 05:16:24;;;;;;;11.90;6.37;;;;;;;;;;4258200;33;20299;-56
2021/06/30 05:18:51;;;;;;;9.13;6.28;;;;;;;;;;4267822;33;20283;-55
2021/06/30 05:21:16;;;;;;;19.92;7.20;;;;;;;;;;4257658;33;20292;-55
2021/06/30 05:23:42;;;;;;;15.77;7.28;;;;;;;;;;4257243;33;20247;-55
2021/06/30 05:26:08;;;;;;;10.13;6.15;;;;;;;;;;4257976;33;20286;-55
2021/06/30 05:28:33;;;;;;;16.27;7.40;;;;;;;;;;4257596;33;20299;-55
2021/06/30 05:31:00;;;;;;;15.23;7.07;;;;;;;;;;4260386;33;20331;-56
2021/06/30 05:33:27;;;;;;;14.52;7.35;;;;;;;;;;4257150;33;20237;-55
2021/06/30 05:35:53;;;;;;;11.73;6.18;;;;;;;;;;4257682;33;20618;-55
2021/06/30 05:38:19;;;;;;;14.98;7.80;;;;;;;;;;4257530;33;20283;-56
2021/06/30 05:40:45;;;;;;;11.07;5.65;;;;;;;;;;4257820;33;20580;-55
2021/06/30 05:43:10;;;;;;;7.05;5.70;;;;;;;;;;4256355;33;20732;-54
2021/06/30 05:45:36;;;;;;;12.23;6.43;;;;;;;;;;4255933;33;20284;-55
2021/06/30 05:48:01;;;;;;;15.70;7.32;;;;;;;;;;4256305;33;20310;-55
2021/06/30 05:50:27;;;;;;;8.70;5.85;;;;;;;;;;4256263;33;20576;-57
2021/06/30 05:52:52;;;;;;;12.95;7.82;;;;;;;;;;4255399;33;20304;-55
2021/06/30 05:55:18;;;;;;;9.77;6.95;;;;;;;;;;4255321;33;20279;-58
2021/06/30 05:57:43;;;;;;;14.68;7.03;;;;;;;;;;4253470;33;20613;-56
2021/06/30 06:00:13;;;;;;;22.87;7.47;;;;;;;;;;4255952;33;20307;-55
2021/06/30 06:02:38;;;;;;;19.12;6.80;;;;;;;;;;4255769;33;20251;-55
2021/06/30 06:05:05;;;;;;;11.80;6.32;;;;;;;;;;4255958;33;20292;-57
2021/06/30 06:07:31;;;;;;;11.80;6.12;;;;;;;;;;4257431;33;20220;-56
2021/06/30 06:09:58;;;;;;;10.80;6.45;;;;;;;;;;4257557;33;20331;-57
2021/06/30 06:12:24;;;;;;;19.62;7.28;;;;;;;;;;4257069;33;20217;-56
2021/06/30 06:14:49;;;;;;;12.90;7.18;;;;;;;;;;4267822;33;20413;-59
2021/06/30 06:17:15;;;;;;;8.88;6.15;;;;;;;;;;4257030;33;20264;-55
2021/06/30 06:19:40;;;;;;;7.72;5.47;;;;;;;;;;4259642;33;20710;-56
2021/06/30 06:22:06;;;;;;;14.38;7.18;;;;;;;;;;4259968;33;20570;-56
2021/06/30 06:24:32;;;;;;;12.70;7.10;;;;;;;;;;4259813;33;20292;-56
2021/06/30 06:26:59;;;;;;;12.45;6.10;;;;;;;;;;4260455;33;20246;-55
2021/06/30 06:29:25;;;;;;;7.97;5.50;;;;;;;;;;4259895;33;20259;-57
2021/06/30 06:31:50;;;;;;;13.52;6.25;;;;;;;;;;4267974;33;20299;-56
2021/06/30 06:34:20;;;;;;;11.55;5.97;;;;;;;;;;4262537;33;20212;-56
2021/06/30 06:36:49;;;;;;;16.77;6.87;;;;;;;;;;4260256;33;20205;-56
2021/06/30 06:39:16;;;;;;;9.57;6.25;;;;;;;;;;4260055;33;20221;-55
2021/06/30 06:41:42;;;;;;;12.10;6.55;;;;;;;;;;4260178;33;20308;-54
2021/06/30 06:44:07;;;;;;;14.48;6.75;;;;;;;;;;4259921;33;20287;-56
2021/06/30 06:46:33;;;;;;;12.10;5.65;;;;;;;;;;4260226;33;20728;-56
2021/06/30 06:48:58;;;;;;;13.85;6.82;;;;;;;;;;4259814;33;20271;-55
2021/06/30 06:51:25;;;;;;;14.02;5.65;;;;;;;;;;4259970;33;20264;-56
2021/06/30 06:53:51;;;;;;;14.68;6.45;;;;;;;;;;4259509;33;20228;-56
2021/06/30 06:56:19;;;;;;;13.98;7.20;;;;;;;;;;4260136;33;20713;-56
2021/06/30 06:58:45;;;;;;;10.95;6.43;;;;;;;;;;4259773;33;20251;-56
2021/06/30 07:01:11;;;;;;;12.95;7.45;;;;;;;;;;4259347;33;20716;-57
2021/06/30 07:03:36;;;;;;;12.40;6.90;;;;;;;;;;4259601;33;20217;-57
2021/06/30 07:06:02;;;;;;;12.95;7.62;;;;;;;;;;4259502;33;20787;-55
2021/06/30 07:08:28;;;;;;;12.70;6.25;;;;;;;;;;4267129;33;20288;-56
2021/06/30 07:10:53;;;;;;;15.70;6.75;;;;;;;;;;4259584;33;20633;-57
2021/06/30 07:13:19;;;;;;;18.60;6.78;;;;;;;;;;4259075;33;20280;-57
2021/06/30 07:15:44;;;;;;;15.52;6.20;;;;;;;;;;4259571;33;20272;-57
2021/06/30 07:18:14;;;;;;;13.25;5.90;;;;;;;;;;4259545;33;20251;-55
2021/06/30 07:20:41;;;;;;;16.80;7.25;;;;;;;;;;4259261;33;20311;-56
2021/06/30 07:23:06;;;;;;;15.55;7.70;;;;;;;;;;4259462;33;20216;-57
2021/06/30 07:25:32;;;;;;;11.82;6.05;;;;;;;;;;4259844;33;20339;-57
2021/06/30 07:27:57;;;;;;;9.90;6.30;;;;;;;;;;4259457;33;20248;-55
2021/06/30 07:30:23;;;;;;;10.32;6.68;;;;;;;;;;4260746;33;20296;-56
2021/06/30 07:32:48;;;;;;;11.05;5.80;;;;;;;;;;4259161;33;20266;-57
2021/06/30 07:35:14;;;;;;;13.02;5.82;;;;;;;;;;4259692;33;20267;-56
2021/06/30 07:37:39;;;;;;;8.07;4.87;;;;;;;;;;4259031;33;20225;-56
2021/06/30 07:40:07;;;;;;;13.45;6.15;;;;;;;;;;4259603;33;20268;-56
2021/06/30 07:42:32;;;;;;;11.68;5.35;;;;;;;;;;4257942;33;20266;-57
2021/06/30 07:44:58;;;;;;;13.73;6.20;;;;;;;;;;4259866;33;20673;-55
2021/06/30 07:47:23;;;;;;;7.80;5.75;;;;;;;;;;4259232;33;20205;-56
2021/06/30 07:49:48;;;;;;;14.32;6.22;;;;;;;;;;4259414;33;20272;-56
2021/06/30 07:52:14;;;;;;;11.35;5.87;;;;;;;;;;4259201;33;20208;-56
2021/06/30 07:54:39;;;;;;;10.52;6.12;;;;;;;;;;4259347;33;20260;-56
2021/06/30 07:57:05;;;;;;;13.32;5.40;;;;;;;;;;4269168;33;20249;-56
2021/06/30 07:59:30;;;;;;;8.25;5.87;;;;;;;;;;4265266;33;20264;-56
2021/06/30 08:01:56;;;;;;;9.25;5.47;;;;;;;;;;4259049;33;20279;-56
2021/06/30 08:04:21;;;;;;;15.45;6.80;;;;;;;;;;4258753;33;20303;-56
2021/06/30 08:06:48;;;;;;;9.27;6.15;;;;;;;;;;4259389;33;20340;-55
2021/06/30 08:09:14;;;;;;;12.57;5.85;;;;;;;;;;4258325;33;20308;-57
2021/06/30 08:11:40;;;;;;;9.00;5.32;;;;;;;;;;4257998;33;20287;-55
2021/06/30 08:14:05;;;;;;;10.65;6.28;;;;;;;;;;4255009;33;20626;-55
2021/06/30 08:16:31;;;;;;;9.48;5.20;;;;;;;;;;4259262;33;20375;-56
2021/06/30 08:18:56;;;;;;;16.95;6.47;;;;;;;;;;4259007;33;20236;-56
2021/06/30 08:21:24;;;;;;;10.35;6.43;;;;;;;;;;4260859;33;20323;-56
2021/06/30 08:23:50;;;;;;;7.45;6.07;;;;;;;;;;4250405;33;20261;-56
2021/06/30 08:26:16;;;;;;;9.40;5.93;;;;;;;;;;4267820;33;20594;-57
2021/06/30 08:28:42;;;;;;;12.05;5.93;;;;;;;;;;4256449;33;20393;-58
2021/06/30 08:31:07;;;;;;;12.95;7.45;;;;;;;;;;4268493;33;20342;-58
2021/06/30 08:33:33;;;;;;;15.50;6.87;;;;;;;;;;4270136;33;20220;-56
2021/06/30 08:35:58;;;;;;;9.85;5.93;;;;;;;;;;4257058;33;20743;-56
2021/06/30 08:38:24;;;;;;;9.73;4.65;;;;;;;;;;4261180;33;20259;-56
2021/06/30 08:40:54;;;;;;;7.43;5.68;;;;;;;;;;4257398;33;20338;-56
2021/06/30 08:43:20;;;;;;;8.35;6.12;;;;;;;;;;4258456;33;20229;-56
2021/06/30 08:45:45;;;;;;;9.40;6.57;;;;;;;;;;4264244;33;20330;-57
2021/06/30 08:48:12;;;;;;;13.52;6.15;;;;;;;;;;4261885;33;20664;-56
2021/06/30 08:50:41;;;;;;;9.68;5.97;;;;;;;;;;4261217;33;20280;-57
2021/06/30 08:53:10;;;;;;;13.62;6.55;;;;;;;;;;4254582;33;20224;-56
2021/06/30 08:55:43;;;;;;;14.93;6.70;;;;;;;;;;4252304;33;20248;-56
2021/06/30 08:58:09;;;;;;;15.20;6.75;;;;;;;;;;4257844;33;20267;-56
2021/06/30 09:00:35;;;;;;;13.93;5.87;;;;;;;;;;4256331;33;20293;-57
2021/06/30 09:03:01;;;;;;;11.70;6.07;;;;;;;;;;4253409;33;20247;-56
2021/06/30 09:07:54;;;;;;;11.80;5.62;;;;;;;;;;4255253;33;20427;-56
2021/06/30 09:10:37;;;;;;;11.90;5.80;;;;;;;;;;4263396;33;20333;-56
2021/06/30 09:13:05;;;;;;;11.65;6.20;;;;;;;;;;4254022;33;20233;-57
2021/06/30 09:15:35;;;;;;;8.35;5.45;;;;;;;;;;4257695;33;20255;-56
2021/06/30 09:18:32;;;;;;;11.38;5.87;;;;;;;;;;4257735;33;20619;-55
2021/06/30 09:21:23;;;;;;;7.40;5.50;;;;;;;;;;4248619;33;20216;-55
2021/06/30 09:24:02;;;;;;;7.62;4.93;;;;;;;;;;4271958;33;20641;-56
2021/06/30 09:26:33;;;;;;;14.25;6.22;;;;;;;;;;4271470;33;20200;-58
2021/06/30 09:29:11;;;;;;;9.27;5.30;;;;;;;;;;4277537;33;20251;-57
2021/06/30 09:31:40;;;;;;;16.73;5.87;;;;;;;;;;4256479;33;20276;-55
2021/06/30 09:34:06;;;;;;;13.38;6.30;;;;;;;;;;4255239;33;20280;-56
2021/06/30 09:36:50;;;;;;;7.47;4.93;;;;;;;;;;4254011;33;20327;-57
2021/06/30 09:39:15;;;;;;;15.05;5.85;;;;;;;;;;4251844;33;20273;-56
2021/06/30 09:41:44;;;;;;;10.10;5.03;;;;;;;;;;4254615;33;20357;-56
2021/06/30 09:44:16;;;;;;;7.62;5.18;;;;;;;;;;4256305;33;20217;-57
2021/06/30 09:46:43;;;;;;;9.15;5.95;;;;;;;;;;4255299;33;20362;-57
2021/06/30 09:49:11;;;;;;;10.70;4.90;;;;;;;;;;4256259;33;20241;-57
2021/06/30 09:51:38;;;;;;;9.38;5.65;;;;;;;;;;4257655;33;20319;-57
2021/06/30 09:54:18;;;;;;;10.75;6.18;;;;;;;;;;4255979;33;20225;-56
2021/06/30 09:56:54;;;;;;;12.77;6.00;;;;;;;;;;4259020;33;20279;-57
2021/06/30 09:59:26;;;;;;;11.77;5.35;;;;;;;;;;4271422;33;20258;-57
2021/06/30 10:01:59;;;;;;;12.57;5.22;;;;;;;;;;4280530;33;20224;-57
2021/06/30 10:04:30;;;;;;;6.30;5.70;;;;;;;;;;4259197;33;20315;-57
2021/06/30 10:07:01;;;;;;;10.68;5.43;;;;;;;;;;4259791;33;20221;-57
2021/06/30 10:09:27;;;;;;;6.62;5.28;;;;;;;;;;4259519;33;20240;-57
2021/06/30 10:12:01;;;;;;;13.25;5.60;;;;;;;;;;4258865;33;20307;-56
2021/06/30 10:14:27;;;;;;;12.32;4.87;;;;;;;;;;4269885;33;20689;-56
2021/06/30 10:16:54;;;;;;;11.63;5.10;;;;;;;;;;4259419;33;20251;-56
2021/06/30 10:19:19;;;;;;;9.75;4.15;;;;;;;;;;4259279;33;20267;-57
2021/06/30 10:21:45;;;;;;;9.63;5.60;;;;;;;;;;4259730;33;20271;-57
2021/06/30 10:24:14;;;;;;;9.05;4.95;;;;;;;;;;4259411;33;20711;-56
2021/06/30 10:26:40;;;;;;;7.35;4.30;;;;;;;;;;4259160;33;20209;-57
2021/06/30 10:29:06;;;;;;;7.47;4.57;;;;;;;;;;4258387;33;20284;-57
2021/06/30 10:31:35;;;;;;;8.73;4.60;;;;;;;;;;4265233;33;20362;-57
2021/06/30 10:34:05;;;;;;;12.90;4.72;;;;;;;;;;4272986;33;20240;-57
2021/06/30 10:36:54;;;;;;;8.43;4.72;;;;;;;;;;4272056;33;20316;-57
2021/06/30 10:39:39;;;;;;;9.40;4.75;;;;;;;;;;4259772;33;20292;-57
2021/06/30 10:42:31;;;;;;;6.18;3.85;;;;;;;;;;4259482;33;20255;-56
2021/06/30 10:45:03;;;;;;;7.30;4.87;;;;;;;;;;4259130;33;20245;-56
2021/06/30 10:47:38;;;;;;;7.70;4.82;;;;;;;;;;4257963;33;20229;-56
2021/06/30 10:50:34;;;;;;;6.80;4.35;;;;;;;;;;4259413;33;20181;-57
2021/06/30 10:53:02;;;;;;;8.38;4.53;;;;;;;;;;4259449;33;20292;-57
2021/06/30 10:55:35;;;;;;;7.72;4.28;;;;;;;;;;4263944;33;20821;-57
2021/06/30 10:58:19;;;;;;;4.82;3.50;;;;;;;;;;4258673;33;20245;-57
2021/06/30 11:00:54;;;;;;;8.40;3.37;;;;;;;;;;4258647;33;20222;-57
2021/06/30 11:03:47;;;;;;;5.18;3.90;;;;;;;;;;4266140;33;20411;-57
2021/06/30 11:06:24;;;;;;;11.43;4.18;;;;;;;;;;4255300;33;20246;-56
2021/06/30 11:08:59;;;;;;;8.27;3.67;;;;;;;;;;4269735;33;20220;-56
2021/06/30 11:11:34;;;;;;;8.95;4.00;;;;;;;;;;4261169;33;20563;-56
2021/06/30 11:14:01;;;;;;;7.50;3.35;;;;;;;;;;4258260;33;20279;-58
2021/06/30 11:16:48;;;;;;;9.90;3.60;;;;;;;;;;4258628;33;20227;-59
2021/06/30 11:19:19;;;;;;;6.00;3.17;;;;;;;;;;4258258;33;20220;-57
2021/06/30 11:21:58;;;;;;;5.25;3.60;;;;;;;;;;4260615;33;21058;-58
2021/06/30 11:27:13;;;;;;;6.68;3.53;;;;;;;;;;4260100;33;20229;-57
2021/06/30 11:32:08;;;;;;;8.90;4.18;;;;;;;;;;4257881;33;20350;-59
2021/06/30 11:34:38;;;;;;;5.15;3.28;;;;;;;;;;4256931;33;20299;-58
2021/06/30 11:37:05;;;;;;;4.57;2.28;;;;;;;;;;4257940;33;20304;-57
2021/06/30 11:39:30;;;;;;;9.18;2.85;;;;;;;;;;4258324;33;20590;-57
2021/06/30 11:41:56;;;;;;;13.77;3.67;;;;;;;;;;4258437;33;20214;-57
2021/06/30 11:44:37;;;;;;;7.93;3.50;;;;;;;;;;4257826;33;20279;-57
2021/06/30 11:47:06;;;;;;;9.40;4.18;;;;;;;;;;4258740;33;20241;-57
2021/06/30 11:49:32;;;;;;;5.65;2.90;;;;;;;;;;4258121;33;20337;-57
2021/06/30 11:52:03;;;;;;;5.35;2.87;;;;;;;;;;4258177;33;20871;-56
2021/06/30 11:54:28;;;;;;;17.73;3.75;;;;;;;;;;4258507;33;20246;-57
2021/06/30 11:56:55;;;;;;;10.88;2.80;;;;;;;;;;4271235;33;20220;-57
2021/06/30 11:59:29;;;;;;;5.93;2.62;;;;;;;;;;4260083;33;20205;-57
2021/06/30 12:01:55;;;;;;;7.90;3.65;;;;;;;;;;4261340;33;20239;-57
2021/06/30 12:04:26;;;;;;;6.18;2.67;;;;;;;;;;4255982;33;20633;-57
2021/06/30 12:07:04;;;;;;;12.50;3.03;;;;;;;;;;4257496;33;20221;-57
2021/06/30 12:09:31;;;;;;;9.30;3.67;;;;;;;;;;4256648;33;20229;-57
2021/06/30 12:12:01;;;;;;;9.00;2.33;;;;;;;;;;4257971;33;20229;-57
2021/06/30 12:14:29;;;;;;;5.10;2.47;;;;;;;;;;4257260;33;20212;-57
2021/06/30 12:17:03;;;;;;;10.18;2.65;;;;;;;;;;4257156;33;20304;-57
2021/06/30 12:20:01;;;;;;;8.80;2.87;;;;;;;;;;4257060;33;20201;-56
2021/06/30 12:22:40;;;;;;;12.00;1.92;;;;;;;;;;4254757;33;20234;-57
2021/06/30 12:25:11;;;;;;;15.57;3.30;;;;;;;;;;4248725;33;20212;-58
2021/06/30 12:28:02;;;;;;;6.53;2.08;;;;;;;;;;4256054;33;20336;-57
2021/06/30 12:30:30;;;;;;;9.15;2.83;;;;;;;;;;4254508;33;20587;-58
2021/06/30 12:32:56;;;;;;;14.20;4.25;;;;;;;;;;4256750;33;20217;-57
2021/06/30 12:35:33;;;;;;;11.50;3.22;;;;;;;;;;4257016;33;20681;-58
2021/06/30 12:38:00;;;;;;;8.07;3.20;;;;;;;;;;4257190;33;20892;-57
2021/06/30 12:40:26;;;;;;;9.98;2.80;;;;;;;;;;4256865;33;20280;-57
2021/06/30 12:43:01;;;;;;;10.05;2.75;;;;;;;;;;4255996;33;20328;-57
2021/06/30 12:45:49;;;;;;;12.35;2.95;;;;;;;;;;4254419;33;20251;-57
2021/06/30 12:48:18;;;;;;;7.75;2.72;;;;;;;;;;4255222;33;20232;-58
2021/06/30 12:50:46;;;;;;;5.78;2.20;;;;;;;;;;4256136;33;20304;-58
2021/06/30 12:53:24;;;;;;;7.28;3.25;;;;;;;;;;4245113;33;20371;-56
2021/06/30 12:56:02;;;;;;;12.07;3.17;;;;;;;;;;4256717;33;20752;-58
2021/06/30 12:58:42;;;;;;;11.30;3.33;;;;;;;;;;4256503;33;20255;-57
2021/06/30 13:01:24;;;;;;;7.12;2.78;;;;;;;;;;4256263;33;20659;-57
2021/06/30 13:03:52;;;;;;;9.02;2.97;;;;;;;;;;4256397;33;20700;-57
2021/06/30 13:06:21;;;;;;;11.93;3.92;;;;;;;;;;4254682;33;20240;-59
2021/06/30 13:09:08;;;;;;;7.85;2.75;;;;;;;;;;4255224;33;20245;-58
2021/06/30 13:11:45;;;;;;;7.53;2.90;;;;;;;;;;4255206;33;20249;-58
2021/06/30 13:14:17;;;;;;;10.45;3.75;;;;;;;;;;4255117;33;20241;-57
2021/06/30 13:16:50;;;;;;;13.10;4.03;;;;;;;;;;4256670;33;20283;-58
2021/06/30 13:19:18;;;;;;;8.82;3.15;;;;;;;;;;4256379;33;20236;-58
2021/06/30 13:21:55;;;;;;;14.30;3.83;;;;;;;;;;4256131;33;20605;-57
2021/06/30 13:24:28;;;;;;;15.00;4.70;;;;;;;;;;4254180;33;20229;-58
2021/06/30 13:35:42;;;;;;;15.55;3.62;;;;;;;;;;4261383;33;20240;-58
2021/06/30 13:38:20;;;;;;;10.77;4.10;;;;;;;;;;4270750;33;20271;-57
2021/06/30 13:40:49;;;;;;;12.93;4.12;;;;;;;;;;4270619;33;20217;-58
2021/06/30 13:43:15;;;;;;;7.85;3.75;;;;;;;;;;4270119;33;20339;-58
2021/06/30 13:46:04;;;;;;;9.52;3.60;;;;;;;;;;4270347;33;20227;-57
2021/06/30 13:48:31;;;;;;;16.35;4.20;;;;;;;;;;4262459;33;20276;-57
2021/06/30 13:50:58;;;;;;;11.23;2.80;;;;;;;;;;4256285;33;20295;-57
2021/06/30 13:53:26;;;;;;;16.95;3.50;;;;;;;;;;4256856;33;20244;-57
2021/06/30 13:55:53;;;;;;;14.40;4.70;;;;;;;;;;4256538;33;20725;-57
2021/06/30 13:58:19;;;;;;;16.87;4.10;;;;;;;;;;4251140;33;20668;-57
2021/06/30 14:00:44;;;;;;;13.32;4.20;;;;;;;;;;4251875;33;20278;-57
2021/06/30 14:03:11;;;;;;;22.40;4.28;;;;;;;;;;4261197;33;20272;-57
2021/06/30 14:05:37;;;;;;;10.65;3.67;;;;;;;;;;4250203;33;20407;-57
2021/06/30 14:08:04;;;;;;;16.87;4.62;;;;;;;;;;4254986;33;20224;-57
2021/06/30 14:10:37;;;;;;;14.15;4.90;;;;;;;;;;4256929;33;20653;-58
2021/06/30 14:13:03;;;;;;;12.25;4.25;;;;;;;;;;4256607;33;20233;-57
2021/06/30 14:15:28;;;;;;;9.43;3.78;;;;;;;;;;4255945;33;20339;-57
2021/06/30 14:17:54;;;;;;;10.40;3.17;;;;;;;;;;4266176;33;20275;-58
2021/06/30 14:20:19;;;;;;;20.55;3.97;;;;;;;;;;4256023;33;20339;-57
2021/06/30 14:22:45;;;;;;;14.63;3.55;;;;;;;;;;4256482;33;20313;-57
2021/06/30 14:25:13;;;;;;;12.63;4.12;;;;;;;;;;4254357;33;20252;-58
2021/06/30 14:27:39;;;;;;;14.93;3.75;;;;;;;;;;4248741;33;20272;-58
2021/06/30 14:30:11;;;;;;;15.05;5.35;;;;;;;;;;4256634;33;20272;-58
2021/06/30 14:32:37;;;;;;;14.98;4.18;;;;;;;;;;4257715;33;20299;-57
2021/06/30 14:35:04;;;;;;;7.12;3.65;;;;;;;;;;4254657;33;20374;-58
2021/06/30 14:37:32;;;;;;;11.25;3.60;;;;;;;;;;4253964;33;20480;-57
2021/06/30 14:39:58;;;;;;;13.57;4.65;;;;;;;;;;4257753;33;20244;-58
2021/06/30 14:42:24;;;;;;;18.17;4.28;;;;;;;;;;4259512;33;20320;-58
2021/06/30 14:44:49;;;;;;;12.98;3.65;;;;;;;;;;4252340;33;20990;-57
2021/06/30 14:47:15;;;;;;;12.98;4.00;;;;;;;;;;4268248;33;20239;-58
2021/06/30 14:49:42;;;;;;;9.88;3.80;;;;;;;;;;4265891;33;20240;-58
2021/06/30 14:52:09;;;;;;;8.45;3.42;;;;;;;;;;4271002;33;20410;-58
2021/06/30 14:54:34;;;;;;;16.98;4.37;;;;;;;;;;4265977;33;20224;-57
2021/06/30 14:57:00;;;;;;;10.57;4.00;;;;;;;;;;4282341;33;20236;-57